createdAt,value
2017-12-03T00:00:23.881Z,26.30
2017-12-03T00:02:52.096Z,25.62
2017-12-03T00:05:19.304Z,25.08
2017-12-03T00:07:46.327Z,24.60
2017-12-03T00:10:13.261Z,26.98
2017-12-03T00:12:40.395Z,25.20
2017-12-03T00:15:07.403Z,23.80
2017-12-03T00:17:34.508Z,24.73
2017-12-03T00:20:02.295Z,23.23
2017-12-03T00:22:29.986Z,24.27
2017-12-03T00:24:57.235Z,24.55
2017-12-03T00:27:24.175Z,26.30
2017-12-03T00:29:51.396Z,23.98
2017-12-03T00:32:18.544Z,24.83
2017-12-03T00:34:45.670Z,25.98
2017-12-03T00:37:12.554Z,27.05
2017-12-03T00:39:40.362Z,25.88
2017-12-03T00:42:07.351Z,26.12
2017-12-03T00:44:35.272Z,24.73
2017-12-03T00:47:02.806Z,25.50
2017-12-03T00:49:29.900Z,23.40
2017-12-03T00:51:56.960Z,22.50
2017-12-03T00:54:24.675Z,24.35
2017-12-03T00:56:51.902Z,24.45
2017-12-03T00:59:19.056Z,26.45
2017-12-03T01:01:46.758Z,24.52
2017-12-03T01:04:13.740Z,25.75
2017-12-03T01:06:40.652Z,25.80
2017-12-03T01:09:07.692Z,24.58
2017-12-03T01:11:34.658Z,25.52
2017-12-03T01:14:01.557Z,26.45
2017-12-03T01:16:30.129Z,24.20
2017-12-03T01:18:57.348Z,24.75
2017-12-03T01:21:24.563Z,26.23
2017-12-03T01:23:51.992Z,25.60
2017-12-03T01:26:19.985Z,25.15
2017-12-03T01:28:47.653Z,26.50
2017-12-03T01:31:14.942Z,26.15
2017-12-03T01:33:42.343Z,22.92
2017-12-03T01:36:09.719Z,25.90
2017-12-03T01:38:38.113Z,23.83
2017-12-03T01:41:05.826Z,24.02
2017-12-03T01:43:33.623Z,25.80
2017-12-03T01:46:01.633Z,26.50
2017-12-03T01:48:28.934Z,23.52
2017-12-03T01:50:56.043Z,25.35
2017-12-03T01:53:23.132Z,22.75
2017-12-03T01:55:50.011Z,25.75
2017-12-03T01:58:16.952Z,22.20
2017-12-03T02:00:43.967Z,22.33
2017-12-03T02:03:11.108Z,24.02
2017-12-03T02:05:38.250Z,25.17
2017-12-03T02:08:06.280Z,30.12
2017-12-03T02:10:34.332Z,24.23
2017-12-03T02:13:02.024Z,24.30
2017-12-03T02:15:30.410Z,24.73
2017-12-03T02:17:58.219Z,26.05
2017-12-03T02:20:26.775Z,24.83
2017-12-03T02:22:54.618Z,25.23
2017-12-03T02:25:23.012Z,22.33
2017-12-03T02:27:50.593Z,22.08
2017-12-03T02:30:18.641Z,21.02
2017-12-03T02:32:46.522Z,22.77
2017-12-03T02:35:15.184Z,22.60
2017-12-03T02:37:42.399Z,22.80
2017-12-03T02:40:09.677Z,23.50
2017-12-03T02:42:37.999Z,21.48
2017-12-03T02:45:06.626Z,23.62
2017-12-03T02:47:33.565Z,22.20
2017-12-03T02:50:00.460Z,20.73
2017-12-03T02:52:28.964Z,20.42
2017-12-03T02:54:55.836Z,20.25
2017-12-03T02:57:25.026Z,19.12
2017-12-03T02:59:51.987Z,23.25
2017-12-03T03:02:21.059Z,19.12
2017-12-03T03:04:47.988Z,20.08
2017-12-03T03:07:16.884Z,18.30
2017-12-03T03:09:43.777Z,20.35
2017-12-03T03:12:11.767Z,20.58
2017-12-03T03:14:41.374Z,18.35
2017-12-03T03:17:12.722Z,19.60
2017-12-03T03:19:41.991Z,18.23
2017-12-03T03:22:11.404Z,21.12
2017-12-03T03:24:41.775Z,19.45
2017-12-03T03:27:08.668Z,20.37
2017-12-03T03:29:38.487Z,20.30
2017-12-03T03:32:05.460Z,19.35
2017-12-03T03:34:32.432Z,19.83
2017-12-03T03:36:59.431Z,17.65
2017-12-03T03:39:26.493Z,20.42
2017-12-03T03:41:53.396Z,21.85
2017-12-03T03:44:20.381Z,19.58
2017-12-03T03:46:48.132Z,18.98
2017-12-03T03:49:15.028Z,20.08
2017-12-03T03:51:42.028Z,18.35
2017-12-03T03:54:08.923Z,17.50
2017-12-03T03:56:35.911Z,18.85
2017-12-03T03:59:02.886Z,17.55
2017-12-03T04:01:30.622Z,17.48
2017-12-03T04:03:57.648Z,18.58
2017-12-03T04:06:24.592Z,18.08
2017-12-03T04:08:51.531Z,19.17
2017-12-03T04:11:18.497Z,17.08
2017-12-03T04:13:49.305Z,16.40
2017-12-03T04:16:17.251Z,20.02
2017-12-03T04:18:44.220Z,19.42
2017-12-03T04:21:11.107Z,19.62
2017-12-03T04:23:38.115Z,18.35
2017-12-03T04:26:04.990Z,17.70
2017-12-03T04:28:31.864Z,18.45
2017-12-03T04:30:59.560Z,18.42
2017-12-03T04:33:26.464Z,18.17
2017-12-03T04:35:53.420Z,17.62
2017-12-03T04:38:21.220Z,17.60
2017-12-03T04:40:48.187Z,16.35
2017-12-03T04:43:15.232Z,18.65
2017-12-03T04:45:42.263Z,17.87
2017-12-03T04:48:09.333Z,17.08
2017-12-03T04:50:36.292Z,18.48
2017-12-03T04:53:03.263Z,17.33
2017-12-03T04:55:31.030Z,20.52
2017-12-03T04:57:58.867Z,18.10
2017-12-03T05:00:25.813Z,17.73
2017-12-03T05:02:52.921Z,17.80
2017-12-03T05:05:19.964Z,17.23
2017-12-03T05:07:46.856Z,18.70
2017-12-03T05:10:13.910Z,17.87
2017-12-03T05:12:40.851Z,16.80
2017-12-03T05:15:07.884Z,18.50
2017-12-03T05:17:34.928Z,17.58
2017-12-03T05:20:01.804Z,16.40
2017-12-03T05:22:28.873Z,19.98
2017-12-03T05:24:55.839Z,17.80
2017-12-03T05:27:38.331Z,18.15
2017-12-03T05:30:06.119Z,16.08
2017-12-03T05:32:33.139Z,17.50
2017-12-03T05:35:00.230Z,16.80
2017-12-03T05:37:27.231Z,17.12
2017-12-03T05:39:54.181Z,14.85
2017-12-03T05:42:21.196Z,15.52
2017-12-03T05:44:48.146Z,17.83
2017-12-03T05:47:15.097Z,16.17
2017-12-03T05:49:42.745Z,17.98
2017-12-03T05:52:09.823Z,16.55
2017-12-03T05:54:38.139Z,17.33
2017-12-03T05:57:05.090Z,15.35
2017-12-03T05:59:33.483Z,15.80
2017-12-03T06:02:00.424Z,14.70
2017-12-03T06:04:28.676Z,15.70
2017-12-03T06:06:57.865Z,15.10
2017-12-03T06:09:24.851Z,14.13
2017-12-03T06:11:53.298Z,14.23
2017-12-03T06:14:22.437Z,15.70
2017-12-03T06:16:49.550Z,15.00
2017-12-03T06:19:18.252Z,13.13
2017-12-03T06:21:48.272Z,15.60
2017-12-03T06:24:16.031Z,14.52
2017-12-03T06:26:43.799Z,13.07
2017-12-03T06:29:11.489Z,13.62
2017-12-03T06:31:41.982Z,15.15
2017-12-03T06:34:09.757Z,14.60
2017-12-03T06:36:37.497Z,13.25
2017-12-03T06:39:04.517Z,13.45
2017-12-03T06:41:33.700Z,14.40
2017-12-03T06:44:01.385Z,13.62
2017-12-03T06:46:28.392Z,12.85
2017-12-03T06:48:55.390Z,13.98
2017-12-03T06:51:28.712Z,12.75
2017-12-03T06:53:56.984Z,13.45
2017-12-03T06:56:27.714Z,13.52
2017-12-03T06:59:01.765Z,11.88
2017-12-03T07:01:32.654Z,13.18
2017-12-03T07:04:02.840Z,14.20
2017-12-03T07:06:34.709Z,15.15
2017-12-03T07:09:02.281Z,13.27
2017-12-03T07:11:29.255Z,14.43
2017-12-03T07:13:56.291Z,14.63
2017-12-03T07:16:23.263Z,14.90
2017-12-03T07:18:55.013Z,15.02
2017-12-03T07:21:27.316Z,14.82
2017-12-03T07:23:59.815Z,15.05
2017-12-03T07:26:34.633Z,16.08
2017-12-03T07:29:05.734Z,15.48
2017-12-03T07:31:37.493Z,15.07
2017-12-03T07:34:08.157Z,16.00
2017-12-03T07:36:37.380Z,17.05
2017-12-03T07:39:09.391Z,16.30
2017-12-03T07:41:40.984Z,16.05
2017-12-03T07:44:11.980Z,16.80
2017-12-03T07:46:42.731Z,18.10
2017-12-03T07:49:13.925Z,18.75
2017-12-03T07:51:45.859Z,16.75
2017-12-03T07:54:16.231Z,19.70
2017-12-03T07:56:49.390Z,19.58
2017-12-03T07:59:19.368Z,18.80
2017-12-03T08:01:47.152Z,19.67
2017-12-03T08:04:23.153Z,19.48
2017-12-03T08:06:52.271Z,21.15
2017-12-03T08:09:25.922Z,20.25
2017-12-03T08:12:01.160Z,18.58
2017-12-03T08:14:34.960Z,20.95
2017-12-03T08:17:11.936Z,20.40
2017-12-03T08:19:46.764Z,17.67
2017-12-03T08:22:14.354Z,20.37
2017-12-03T08:24:45.171Z,18.90
2017-12-03T08:27:25.686Z,19.98
2017-12-03T08:29:55.518Z,20.37
2017-12-03T08:32:23.734Z,18.58
2017-12-03T08:34:53.075Z,19.90
2017-12-03T08:37:20.083Z,19.17
2017-12-03T08:39:48.380Z,20.20
2017-12-03T08:42:24.278Z,22.65
2017-12-03T08:44:53.209Z,20.88
2017-12-03T08:47:23.759Z,19.67
2017-12-03T08:49:50.704Z,20.98
2017-12-03T08:52:22.940Z,22.37
2017-12-03T08:54:54.077Z,20.70
2017-12-03T08:57:22.106Z,20.33
2017-12-03T08:59:49.079Z,21.92
2017-12-03T09:02:16.554Z,21.40
2017-12-03T09:04:43.513Z,21.50
2017-12-03T09:07:10.627Z,19.73
2017-12-03T09:09:38.547Z,20.98
2017-12-03T09:12:07.340Z,21.17
2017-12-03T09:14:35.863Z,23.70
2017-12-03T09:17:03.935Z,23.40
2017-12-03T09:19:31.545Z,24.10
2017-12-03T09:21:59.968Z,21.52
2017-12-03T09:24:28.724Z,21.55
2017-12-03T09:26:56.576Z,22.87
2017-12-03T09:29:23.563Z,21.55
2017-12-03T09:31:51.998Z,21.37
2017-12-03T09:34:23.673Z,23.45
2017-12-03T09:36:50.745Z,20.75
2017-12-03T09:39:19.572Z,21.08
2017-12-03T09:41:46.549Z,22.73
2017-12-03T09:44:22.997Z,22.58
2017-12-03T09:46:50.057Z,21.50
2017-12-03T09:49:20.894Z,24.20
2017-12-03T09:51:49.369Z,23.23
2017-12-03T09:54:16.436Z,21.30
2017-12-03T09:56:44.741Z,23.00
2017-12-03T09:59:12.236Z,21.30
2017-12-03T10:01:41.028Z,21.45
2017-12-03T10:04:08.074Z,23.67
2017-12-03T10:06:35.035Z,23.00
2017-12-03T10:09:02.240Z,21.92
2017-12-03T10:11:30.372Z,25.33
2017-12-03T10:13:58.856Z,26.02
2017-12-03T10:16:26.732Z,22.87
2017-12-03T10:18:54.188Z,19.83
2017-12-03T10:21:24.165Z,20.05
2017-12-03T10:23:53.705Z,20.83
2017-12-03T10:26:26.171Z,22.50
2017-12-03T10:28:56.339Z,19.10
2017-12-03T10:31:23.350Z,20.20
2017-12-03T10:33:52.276Z,23.05
2017-12-03T10:36:20.072Z,20.00
2017-12-03T10:38:49.368Z,17.15
2017-12-03T10:41:16.311Z,20.50
2017-12-03T10:43:43.280Z,19.85
2017-12-03T10:46:10.245Z,18.67
2017-12-03T10:48:37.163Z,19.73
2017-12-03T10:51:06.477Z,18.75
2017-12-03T10:53:33.357Z,20.17
2017-12-03T10:56:00.313Z,19.00
2017-12-03T10:58:27.362Z,19.42
2017-12-03T11:00:54.694Z,17.95
2017-12-03T11:03:24.039Z,18.92
2017-12-03T11:05:51.028Z,18.52
2017-12-03T11:08:18.161Z,17.05
2017-12-03T11:10:45.450Z,19.02
2017-12-03T11:13:13.594Z,18.95
2017-12-03T11:15:40.671Z,17.90
2017-12-03T11:18:07.971Z,19.83
2017-12-03T11:20:47.182Z,17.23
2017-12-03T11:23:21.288Z,15.38
2017-12-03T11:25:55.025Z,17.80
2017-12-03T11:28:24.082Z,17.23
2017-12-03T11:30:52.028Z,17.27
2017-12-03T11:33:19.534Z,20.67
2017-12-03T11:35:47.148Z,17.45
2017-12-03T11:38:20.160Z,16.52
2017-12-03T11:40:49.823Z,17.35
2017-12-03T11:46:03.731Z,18.95
2017-12-03T11:48:32.334Z,17.90
2017-12-03T11:51:08.037Z,18.17
2017-12-03T11:53:38.503Z,18.73
2017-12-03T11:56:11.201Z,18.25
2017-12-03T11:58:47.359Z,18.52
2017-12-03T12:01:19.608Z,19.02
2017-12-03T12:03:55.594Z,18.85
2017-12-03T12:06:27.623Z,18.70
2017-12-03T12:09:02.976Z,18.00
2017-12-03T12:11:35.967Z,18.40
2017-12-03T12:14:12.584Z,18.10
2017-12-03T12:19:31.300Z,18.25
2017-12-03T12:22:11.633Z,16.90
2017-12-03T12:24:51.470Z,18.12
2017-12-03T12:30:05.288Z,16.75
2017-12-03T12:35:29.446Z,17.85
2017-12-03T12:38:09.811Z,20.40
2017-12-03T12:40:50.329Z,17.98
2017-12-03T12:43:42.840Z,19.20
2017-12-03T12:46:23.618Z,19.95
2017-12-03T12:48:51.806Z,18.02
2017-12-03T12:51:21.979Z,18.20
2017-12-03T12:53:49.853Z,19.23
2017-12-03T12:56:18.035Z,18.23
2017-12-03T12:58:45.806Z,19.37
2017-12-03T13:01:13.822Z,18.70
2017-12-03T13:03:41.646Z,18.77
2017-12-03T13:06:11.293Z,19.73
2017-12-03T13:08:41.461Z,18.25
2017-12-03T13:11:09.269Z,18.50
2017-12-03T13:13:38.913Z,18.27
2017-12-03T13:16:08.957Z,22.00
2017-12-03T13:18:40.041Z,17.77
2017-12-03T13:21:07.560Z,18.58
2017-12-03T13:23:34.478Z,19.73
2017-12-03T13:26:01.440Z,18.20
2017-12-03T13:28:28.399Z,18.15
2017-12-03T13:30:55.412Z,22.90
2017-12-03T13:33:22.364Z,18.65
2017-12-03T13:35:49.267Z,18.62
2017-12-03T13:38:16.223Z,21.73
2017-12-03T13:40:43.192Z,20.02
2017-12-03T13:43:10.817Z,18.98
2017-12-03T13:45:37.839Z,18.87
2017-12-03T13:48:04.808Z,18.80
2017-12-03T13:50:31.689Z,19.62
2017-12-03T13:52:58.634Z,18.15
2017-12-03T13:55:25.515Z,20.62
2017-12-03T13:57:52.407Z,17.85
2017-12-03T14:00:19.381Z,18.87
2017-12-03T14:02:47.023Z,18.70
2017-12-03T14:05:13.919Z,19.98
2017-12-03T14:07:40.933Z,22.42
2017-12-03T14:10:07.935Z,20.20
2017-12-03T14:12:34.940Z,17.83
2017-12-03T14:15:01.893Z,17.67
2017-12-03T14:17:29.673Z,16.98
2017-12-03T14:20:00.348Z,19.10
2017-12-03T14:22:33.963Z,18.80
2017-12-03T14:25:07.419Z,17.40
2017-12-03T14:27:42.590Z,18.87
2017-12-03T14:30:17.935Z,19.30
2017-12-03T14:32:49.566Z,17.05
2017-12-03T14:35:23.102Z,17.73
2017-12-03T14:38:01.788Z,19.23
2017-12-03T14:40:36.378Z,17.05
2017-12-03T14:43:07.197Z,19.33
2017-12-03T14:45:38.647Z,17.87
2017-12-03T14:48:16.840Z,19.77
2017-12-03T14:50:50.380Z,18.37
2017-12-03T14:53:22.660Z,18.60
2017-12-03T14:55:51.326Z,20.20
2017-12-03T14:58:18.309Z,17.95
2017-12-03T15:00:47.963Z,21.40
2017-12-03T15:03:23.916Z,20.62
2017-12-03T15:05:54.035Z,19.00
2017-12-03T15:22:58.876Z,20.50
2017-12-03T15:31:25.081Z,20.90
2017-12-03T15:34:13.769Z,20.30
2017-12-03T15:39:46.462Z,20.73
2017-12-03T15:42:27.021Z,20.23
2017-12-03T15:44:54.714Z,27.33
2017-12-03T15:47:21.896Z,19.70
2017-12-03T15:49:48.939Z,23.50
2017-12-03T15:52:20.867Z,22.55
2017-12-03T15:54:47.927Z,20.37
2017-12-03T15:57:18.360Z,19.05
2017-12-03T15:59:45.475Z,21.10
2017-12-03T16:02:12.565Z,23.85
2017-12-03T16:04:39.964Z,19.58
2017-12-03T16:07:07.009Z,19.50
2017-12-03T16:09:33.996Z,19.70
2017-12-03T16:12:00.948Z,21.37
2017-12-03T16:14:28.020Z,22.35
2017-12-03T16:17:04.664Z,22.30
2017-12-03T16:19:40.718Z,21.25
2017-12-03T16:22:11.758Z,21.50
2017-12-03T16:24:44.504Z,21.42
2017-12-03T16:27:12.400Z,19.30
2017-12-03T16:29:39.376Z,21.42
2017-12-03T16:32:11.477Z,22.90
2017-12-03T16:34:38.663Z,22.00
2017-12-03T16:37:11.257Z,23.83
2017-12-03T16:39:38.444Z,23.15
2017-12-03T16:42:05.416Z,19.23
2017-12-03T16:44:32.399Z,21.67
2017-12-03T16:47:00.025Z,20.48
2017-12-03T16:49:27.011Z,21.83
2017-12-03T16:51:54.703Z,21.95
2017-12-03T16:54:21.713Z,22.90
2017-12-03T16:56:48.872Z,21.98
2017-12-03T16:59:16.861Z,23.10
2017-12-03T17:01:44.007Z,20.25
2017-12-03T17:04:11.359Z,22.30
2017-12-03T17:06:38.396Z,20.02
2017-12-03T17:09:06.438Z,20.30
2017-12-03T17:11:48.236Z,21.42
2017-12-03T17:14:18.491Z,20.83
2017-12-03T17:16:46.447Z,22.48
2017-12-03T17:19:13.805Z,22.23
2017-12-03T17:21:40.899Z,22.75
2017-12-03T17:24:08.417Z,20.30
2017-12-03T17:26:35.481Z,20.85
2017-12-03T17:29:16.349Z,19.45
2017-12-03T17:31:56.664Z,23.10
2017-12-03T17:34:32.287Z,22.02
2017-12-03T17:37:10.333Z,20.37
2017-12-03T17:39:51.908Z,21.17
2017-12-03T17:42:29.926Z,21.62
2017-12-03T17:45:12.676Z,21.12
2017-12-03T17:47:53.556Z,23.85
2017-12-03T17:50:28.325Z,20.85
2017-12-03T17:52:55.220Z,21.12
2017-12-03T17:55:22.722Z,23.60
2017-12-03T17:57:49.644Z,21.00
2017-12-03T18:00:16.524Z,21.98
2017-12-03T18:02:43.500Z,23.65
2017-12-03T18:05:11.024Z,23.45
2017-12-03T18:07:38.630Z,22.90
2017-12-03T18:10:05.597Z,25.77
2017-12-03T18:12:32.709Z,24.60
2017-12-03T18:14:59.925Z,23.23
2017-12-03T18:17:26.937Z,22.52
2017-12-03T18:19:55.165Z,22.42
2017-12-03T18:22:22.756Z,23.38
2017-12-03T18:24:49.812Z,21.70
2017-12-03T18:27:16.823Z,24.12
2017-12-03T18:29:44.116Z,24.73
2017-12-03T18:32:11.860Z,25.58
2017-12-03T18:34:38.972Z,24.48
2017-12-03T18:37:06.600Z,25.42
2017-12-03T18:39:34.613Z,21.90
2017-12-03T18:42:02.065Z,19.70
2017-12-03T18:44:29.183Z,23.80
2017-12-03T18:46:56.219Z,22.45
2017-12-03T18:49:23.243Z,22.45
2017-12-03T18:51:50.248Z,25.58
2017-12-03T18:54:18.080Z,23.10
2017-12-03T18:56:45.987Z,22.87
2017-12-03T18:59:13.172Z,22.27
2017-12-03T19:01:40.240Z,24.60
2017-12-03T19:04:07.321Z,26.33
2017-12-03T19:06:35.108Z,23.38
2017-12-03T19:09:02.072Z,23.60
2017-12-03T19:11:30.904Z,25.48
2017-12-03T19:13:58.304Z,24.58
2017-12-03T19:16:25.184Z,24.30
2017-12-03T19:18:52.263Z,23.73
2017-12-03T19:21:19.409Z,23.12
2017-12-03T19:23:46.363Z,25.27
2017-12-03T19:26:13.337Z,22.90
2017-12-03T19:28:40.215Z,24.20
2017-12-03T19:31:07.185Z,25.33
2017-12-03T19:33:34.131Z,22.77
2017-12-03T19:36:01.033Z,23.17
2017-12-03T19:38:37.727Z,22.77
2017-12-03T19:41:04.657Z,21.65
2017-12-03T19:43:45.948Z,25.37
2017-12-03T19:46:13.764Z,24.85
2017-12-03T19:48:42.001Z,25.33
2017-12-03T19:51:08.988Z,24.25
2017-12-03T19:53:50.775Z,23.15
2017-12-03T19:56:30.998Z,24.52
2017-12-03T19:58:58.437Z,27.10
2017-12-03T20:01:25.391Z,24.30
2017-12-03T20:03:53.552Z,24.12
2017-12-03T20:06:22.764Z,25.20
2017-12-03T20:08:59.760Z,25.90
2017-12-03T20:11:28.180Z,26.08
2017-12-03T20:14:06.170Z,23.95
2017-12-03T20:16:34.754Z,25.15
2017-12-03T20:21:50.977Z,26.30
2017-12-03T20:24:19.170Z,25.90
2017-12-03T20:26:46.805Z,24.60
2017-12-03T20:29:13.898Z,24.73
2017-12-03T20:31:40.977Z,25.83
2017-12-03T20:34:08.176Z,27.80
2017-12-03T20:36:39.863Z,28.10
2017-12-03T20:39:09.154Z,26.95
2017-12-03T20:41:37.340Z,23.62
2017-12-03T20:44:14.881Z,25.85
2017-12-03T20:46:42.052Z,25.88
2017-12-03T20:49:09.234Z,26.98
2017-12-03T20:51:36.292Z,26.70
2017-12-03T20:54:05.957Z,24.20
2017-12-03T20:56:35.414Z,25.92
2017-12-03T20:59:04.680Z,26.67
2017-12-03T21:01:36.117Z,26.23
2017-12-03T21:04:03.996Z,25.58
2017-12-03T21:06:32.753Z,26.80
2017-12-03T21:09:05.177Z,26.25
2017-12-03T21:11:34.110Z,24.85
2017-12-03T21:14:07.820Z,27.58
2017-12-03T21:16:40.714Z,28.17
2017-12-03T21:19:14.372Z,25.95
2017-12-03T21:21:44.353Z,26.30
2017-12-03T21:24:11.816Z,27.02
2017-12-03T21:26:40.320Z,26.65
2017-12-03T21:29:09.149Z,25.48
2017-12-03T21:31:43.370Z,27.65
2017-12-03T21:34:10.807Z,27.15
2017-12-03T21:36:47.949Z,27.30
2017-12-03T21:39:16.309Z,28.05
2017-12-03T21:41:44.243Z,25.95
2017-12-03T21:44:13.289Z,24.92
2017-12-03T21:46:41.982Z,27.30
2017-12-03T21:49:11.277Z,26.77
2017-12-03T21:51:39.657Z,27.50
2017-12-03T21:54:09.464Z,27.23
2017-12-03T21:56:38.164Z,26.37
2017-12-03T21:59:07.418Z,26.25
2017-12-03T22:01:46.527Z,28.10
2017-12-03T22:04:15.621Z,27.83
2017-12-03T22:06:46.628Z,26.52
2017-12-03T22:09:14.457Z,30.33
2017-12-03T22:11:42.232Z,29.70
2017-12-03T22:14:09.174Z,27.23
2017-12-03T22:16:46.616Z,25.95
2017-12-03T22:19:14.233Z,26.52
2017-12-03T22:21:41.115Z,27.87
2017-12-03T22:24:21.962Z,24.83
2017-12-03T22:26:50.613Z,26.15
2017-12-03T22:29:17.603Z,27.70
2017-12-03T22:31:50.875Z,27.85
2017-12-03T22:34:17.991Z,24.42
2017-12-03T22:36:46.450Z,25.27
2017-12-03T22:39:14.816Z,28.27
2017-12-03T22:41:41.780Z,25.62
2017-12-03T22:44:08.736Z,25.98
2017-12-03T22:46:35.813Z,25.17
2017-12-03T22:49:02.922Z,26.10
2017-12-03T22:51:30.656Z,27.00
2017-12-03T22:53:57.618Z,26.87
2017-12-03T22:56:24.623Z,25.40
2017-12-03T22:58:51.572Z,24.02
2017-12-03T23:01:18.472Z,27.23
2017-12-03T23:03:45.411Z,25.35
2017-12-03T23:06:12.347Z,27.55
2017-12-03T23:08:39.263Z,24.00
2017-12-03T23:11:06.267Z,26.87
2017-12-03T23:13:33.904Z,24.00
2017-12-03T23:16:00.884Z,25.70
2017-12-03T23:18:28.607Z,26.23
2017-12-03T23:20:55.518Z,25.48
2017-12-03T23:23:22.505Z,24.92
2017-12-03T23:25:49.515Z,26.37
2017-12-03T23:28:22.705Z,23.98
2017-12-03T23:30:53.612Z,23.08
2017-12-03T23:33:28.744Z,24.33
2017-12-03T23:36:01.810Z,23.00
2017-12-03T23:38:38.923Z,25.37
2017-12-03T23:41:10.468Z,24.17
2017-12-03T23:43:42.535Z,23.52
2017-12-03T23:46:10.946Z,25.77
2017-12-03T23:48:44.657Z,27.55
2017-12-03T23:51:16.005Z,26.98
2017-12-03T23:53:42.983Z,23.95
2017-12-03T23:56:14.739Z,23.80
2017-12-03T23:58:45.709Z,23.23
